createdAt,value
2022-10-03T00:00:02.173Z,483.00
2022-10-03T00:00:57.212Z,483.00
2022-10-03T00:01:52.281Z,483.00
2022-10-03T00:02:47.388Z,478.00
2022-10-03T00:03:42.428Z,480.00
2022-10-03T00:04:37.481Z,484.00
2022-10-03T00:05:32.558Z,485.00
2022-10-03T00:06:28.491Z,485.00
2022-10-03T00:07:23.665Z,477.00
2022-10-03T00:08:18.803Z,478.00
2022-10-03T00:09:13.999Z,472.00
2022-10-03T00:10:09.324Z,474.00
2022-10-03T00:11:04.500Z,475.00
2022-10-03T00:11:59.720Z,485.00
2022-10-03T00:12:54.857Z,480.00
2022-10-03T00:13:50.162Z,474.00
2022-10-03T00:14:45.194Z,477.00
2022-10-03T00:15:40.400Z,451.00
2022-10-03T00:16:35.697Z,457.00
2022-10-03T00:17:30.869Z,460.00
2022-10-03T00:18:26.025Z,458.00
2022-10-03T00:19:21.223Z,459.00
2022-10-03T00:20:16.546Z,452.00
2022-10-03T00:21:11.796Z,463.00
2022-10-03T00:22:06.997Z,458.00
2022-10-03T00:23:02.307Z,458.00
2022-10-03T00:23:57.360Z,453.00
2022-10-03T00:24:52.570Z,478.00
2022-10-03T00:25:47.793Z,458.00
2022-10-03T00:26:43.045Z,463.00
2022-10-03T00:27:38.272Z,461.00
2022-10-03T00:28:33.621Z,457.00
2022-10-03T00:29:28.686Z,459.00
2022-10-03T00:30:23.909Z,457.00
2022-10-03T00:31:19.157Z,460.00
2022-10-03T00:32:14.387Z,460.00
2022-10-03T00:33:09.708Z,452.00
2022-10-03T00:34:04.768Z,454.00
2022-10-03T00:34:59.921Z,460.00
2022-10-03T00:35:55.094Z,460.00
2022-10-03T00:36:50.434Z,462.00
2022-10-03T00:37:45.571Z,466.00
2022-10-03T00:38:40.762Z,467.00
2022-10-03T00:39:35.992Z,462.00
2022-10-03T00:40:31.171Z,467.00
2022-10-03T00:41:26.260Z,466.00
2022-10-03T00:42:21.404Z,463.00
2022-10-03T00:43:16.608Z,465.00
2022-10-03T00:44:11.751Z,460.00
2022-10-03T00:45:07.011Z,469.00
2022-10-03T00:46:02.121Z,462.00
2022-10-03T00:46:57.318Z,461.00
2022-10-03T00:47:52.336Z,464.00
2022-10-03T00:48:47.493Z,470.00
2022-10-03T00:49:42.803Z,467.00
2022-10-03T00:50:37.918Z,472.00
2022-10-03T00:51:32.994Z,461.00
2022-10-03T00:52:28.238Z,462.00
2022-10-03T00:53:23.478Z,462.00
2022-10-03T00:54:18.695Z,463.00
2022-10-03T00:55:13.802Z,470.00
2022-10-03T00:56:08.964Z,467.00
2022-10-03T00:57:04.093Z,455.00
2022-10-03T00:57:59.225Z,469.00
2022-10-03T00:58:54.495Z,469.00
2022-10-03T00:59:49.582Z,469.00
2022-10-03T01:00:44.781Z,465.00
2022-10-03T01:01:39.985Z,468.00
2022-10-03T01:02:34.847Z,465.00
2022-10-03T01:03:29.861Z,471.00
2022-10-03T01:04:24.869Z,465.00
2022-10-03T01:05:19.978Z,467.00
2022-10-03T01:06:15.071Z,465.00
2022-10-03T01:07:10.071Z,469.00
2022-10-03T01:08:05.198Z,468.00
2022-10-03T01:09:00.237Z,463.00
2022-10-03T01:09:55.257Z,472.00
2022-10-03T01:10:50.313Z,469.00
2022-10-03T01:11:45.316Z,465.00
2022-10-03T01:12:40.367Z,467.00
2022-10-03T01:13:35.493Z,473.00
2022-10-03T01:14:30.526Z,469.00
2022-10-03T01:15:25.566Z,470.00
2022-10-03T01:16:20.711Z,468.00
2022-10-03T01:17:18.995Z,467.00
2022-10-03T01:18:14.101Z,465.00
2022-10-03T01:19:09.325Z,468.00
2022-10-03T01:20:04.429Z,463.00
2022-10-03T01:20:59.516Z,462.00
2022-10-03T01:21:54.527Z,462.00
2022-10-03T01:22:49.543Z,464.00
2022-10-03T01:23:44.661Z,463.00
2022-10-03T01:24:39.711Z,465.00
2022-10-03T01:25:34.790Z,461.00
2022-10-03T01:26:29.864Z,457.00
2022-10-03T01:27:24.893Z,467.00
2022-10-03T01:28:20.943Z,463.00
2022-10-03T01:29:14.938Z,458.00
2022-10-03T01:30:10.130Z,460.00
2022-10-03T01:31:06.105Z,465.00
2022-10-03T01:32:01.159Z,466.00
2022-10-03T01:32:57.168Z,460.00
2022-10-03T01:33:52.184Z,462.00
2022-10-03T01:34:47.521Z,467.00
2022-10-03T01:35:43.332Z,462.00
2022-10-03T01:36:38.519Z,464.00
2022-10-03T01:37:33.816Z,466.00
2022-10-03T01:38:30.056Z,464.00
2022-10-03T01:39:25.246Z,465.00
2022-10-03T01:40:21.008Z,464.00
2022-10-03T01:41:16.169Z,459.00
2022-10-03T01:42:11.428Z,469.00
2022-10-03T01:43:07.253Z,464.00
2022-10-03T01:44:02.390Z,463.00
2022-10-03T01:44:58.141Z,463.00
2022-10-03T01:45:53.294Z,465.00
2022-10-03T01:46:48.673Z,463.00
2022-10-03T01:47:44.272Z,460.00
2022-10-03T01:48:39.455Z,460.00
2022-10-03T01:49:34.615Z,457.00
2022-10-03T01:50:31.134Z,462.00
2022-10-03T01:51:26.326Z,462.00
2022-10-03T01:52:22.138Z,459.00
2022-10-03T01:53:17.267Z,460.00
2022-10-03T01:54:12.464Z,464.00
2022-10-03T01:55:08.222Z,460.00
2022-10-03T01:56:03.517Z,458.00
2022-10-03T01:56:59.249Z,457.00
2022-10-03T01:57:54.528Z,463.00
2022-10-03T01:58:49.732Z,459.00
2022-10-03T01:59:45.464Z,466.00
2022-10-03T02:00:40.726Z,456.00
2022-10-03T02:01:35.971Z,458.00
2022-10-03T02:02:32.269Z,460.00
2022-10-03T02:03:27.453Z,470.00
2022-10-03T02:04:23.182Z,461.00
2022-10-03T02:05:18.360Z,468.00
2022-10-03T02:06:13.547Z,468.00
2022-10-03T02:07:09.329Z,463.00
2022-10-03T02:08:04.524Z,463.00
2022-10-03T02:09:00.383Z,469.00
2022-10-03T02:09:55.428Z,476.00
2022-10-03T02:10:50.857Z,467.00
2022-10-03T02:11:46.721Z,463.00
2022-10-03T02:12:41.882Z,463.00
2022-10-03T02:13:37.153Z,463.00
2022-10-03T02:14:32.207Z,464.00
2022-10-03T02:15:28.875Z,467.00
2022-10-03T02:16:24.154Z,467.00
2022-10-03T02:17:19.366Z,470.00
2022-10-03T02:18:15.076Z,468.00
2022-10-03T02:19:10.233Z,466.00
2022-10-03T02:20:05.365Z,489.00
2022-10-03T02:21:01.804Z,466.00
2022-10-03T02:21:56.993Z,470.00
2022-10-03T02:22:52.870Z,475.00
2022-10-03T02:23:48.048Z,458.00
2022-10-03T02:24:43.232Z,457.00
2022-10-03T02:25:39.098Z,458.00
2022-10-03T02:26:34.356Z,451.00
2022-10-03T02:27:30.235Z,453.00
2022-10-03T02:28:25.335Z,451.00
2022-10-03T02:29:20.512Z,468.00
2022-10-03T02:30:16.277Z,456.00
2022-10-03T02:31:11.544Z,452.00
2022-10-03T02:32:06.623Z,447.00
2022-10-03T02:33:01.839Z,458.00
2022-10-03T02:33:57.027Z,452.00
2022-10-03T02:34:52.520Z,452.00
2022-10-03T02:35:47.683Z,453.00
2022-10-03T02:36:42.989Z,449.00
2022-10-03T02:37:38.777Z,451.00
2022-10-03T02:38:33.914Z,454.00
2022-10-03T02:39:29.252Z,456.00
2022-10-03T02:40:24.300Z,451.00
2022-10-03T02:41:19.341Z,452.00
2022-10-03T02:42:14.357Z,458.00
2022-10-03T02:43:09.381Z,456.00
2022-10-03T02:44:04.409Z,455.00
2022-10-03T02:44:59.492Z,456.00
2022-10-03T02:45:54.781Z,456.00
2022-10-03T02:46:49.856Z,460.00
2022-10-03T02:47:45.187Z,457.00
2022-10-03T02:48:40.083Z,470.00
2022-10-03T02:49:35.097Z,453.00
2022-10-03T02:50:30.148Z,459.00
2022-10-03T02:51:25.199Z,455.00
2022-10-03T02:52:20.431Z,457.00
2022-10-03T02:53:15.556Z,455.00
2022-10-03T02:54:10.584Z,461.00
2022-10-03T02:55:05.609Z,460.00
2022-10-03T02:56:00.686Z,454.00
2022-10-03T02:56:55.706Z,453.00
2022-10-03T02:57:50.719Z,460.00
2022-10-03T02:58:45.746Z,461.00
2022-10-03T02:59:40.790Z,456.00
2022-10-03T03:00:35.853Z,454.00
2022-10-03T03:01:30.896Z,453.00
2022-10-03T03:02:25.992Z,456.00
2022-10-03T03:03:21.215Z,456.00
2022-10-03T03:04:17.103Z,453.00
2022-10-03T03:05:12.282Z,456.00
2022-10-03T03:06:08.155Z,453.00
2022-10-03T03:07:03.294Z,460.00
2022-10-03T03:07:58.621Z,456.00
2022-10-03T03:08:54.257Z,460.00
2022-10-03T03:09:49.431Z,449.00
2022-10-03T03:10:44.579Z,449.00
2022-10-03T03:11:41.545Z,448.00
2022-10-03T03:12:41.100Z,444.00
2022-10-03T03:13:33.233Z,451.00
2022-10-03T03:14:27.320Z,452.00
2022-10-03T03:15:22.527Z,450.00
2022-10-03T03:16:18.365Z,453.00
2022-10-03T03:17:13.647Z,448.00
2022-10-03T03:18:09.539Z,446.00
2022-10-03T03:19:04.583Z,451.00
2022-10-03T03:19:59.772Z,447.00
2022-10-03T03:20:55.510Z,456.00
2022-10-03T03:21:50.811Z,447.00
2022-10-03T03:22:46.143Z,450.00
2022-10-03T03:23:42.435Z,451.00
2022-10-03T03:24:37.628Z,448.00
2022-10-03T03:25:33.387Z,451.00
2022-10-03T03:26:28.527Z,454.00
2022-10-03T03:27:23.975Z,453.00
2022-10-03T03:28:19.814Z,454.00
2022-10-03T03:29:14.988Z,454.00
2022-10-03T03:30:10.865Z,455.00
2022-10-03T03:31:06.083Z,455.00
2022-10-03T03:32:01.545Z,457.00
2022-10-03T03:32:57.289Z,455.00
2022-10-03T03:33:52.328Z,456.00
2022-10-03T03:34:47.497Z,462.00
2022-10-03T03:35:43.779Z,462.00
2022-10-03T03:36:39.024Z,457.00
2022-10-03T03:37:34.769Z,453.00
2022-10-03T03:38:29.899Z,456.00
2022-10-03T03:39:25.110Z,460.00
2022-10-03T03:40:20.850Z,464.00
2022-10-03T03:41:16.056Z,460.00
2022-10-03T03:42:11.914Z,459.00
2022-10-03T03:43:07.088Z,460.00
2022-10-03T03:44:02.432Z,454.00
2022-10-03T03:44:58.165Z,463.00
2022-10-03T03:45:53.409Z,457.00
2022-10-03T03:46:48.580Z,464.00
2022-10-03T03:47:45.000Z,463.00
2022-10-03T03:48:40.197Z,469.00
2022-10-03T03:49:35.944Z,475.00
2022-10-03T03:50:31.116Z,469.00
2022-10-03T03:51:26.309Z,472.00
2022-10-03T03:52:22.091Z,472.00
2022-10-03T03:53:17.294Z,471.00
2022-10-03T03:54:13.123Z,468.00
2022-10-03T03:55:08.153Z,477.00
2022-10-03T03:56:03.344Z,468.00
2022-10-03T03:56:59.102Z,477.00
2022-10-03T03:57:54.441Z,471.00
2022-10-03T03:58:49.601Z,473.00
2022-10-03T03:59:45.867Z,477.00
2022-10-03T04:00:41.251Z,468.00
2022-10-03T04:01:36.997Z,473.00
2022-10-03T04:02:32.225Z,471.00
2022-10-03T04:03:27.622Z,470.00
2022-10-03T04:04:22.736Z,465.00
2022-10-03T04:05:19.141Z,468.00
2022-10-03T04:06:14.172Z,466.00
2022-10-03T04:07:09.377Z,459.00
2022-10-03T04:08:05.163Z,459.00
2022-10-03T04:09:00.349Z,460.00
2022-10-03T04:09:55.636Z,463.00
2022-10-03T04:10:51.799Z,453.00
2022-10-03T04:11:46.993Z,464.00
2022-10-03T04:12:42.769Z,463.00
2022-10-03T04:13:37.959Z,466.00
2022-10-03T04:14:33.277Z,463.00
2022-10-03T04:15:28.907Z,469.00
2022-10-03T04:16:24.121Z,462.00
2022-10-03T04:17:19.883Z,469.00
2022-10-03T04:18:15.150Z,473.00
2022-10-03T04:19:10.483Z,468.00
2022-10-03T04:20:06.093Z,467.00
2022-10-03T04:21:01.250Z,463.00
2022-10-03T04:21:56.424Z,471.00
2022-10-03T04:22:51.731Z,469.00
2022-10-03T04:23:47.047Z,468.00
2022-10-03T04:24:42.063Z,464.00
2022-10-03T04:25:37.381Z,463.00
2022-10-03T04:26:33.021Z,468.00
2022-10-03T04:27:28.264Z,466.00
2022-10-03T04:28:23.462Z,474.00
2022-10-03T04:29:19.366Z,474.00
2022-10-03T04:30:14.505Z,471.00
2022-10-03T04:31:09.737Z,471.00
2022-10-03T04:32:04.966Z,469.00
2022-10-03T04:33:00.037Z,461.00
2022-10-03T04:33:55.079Z,462.00
2022-10-03T04:34:50.157Z,460.00
2022-10-03T04:35:45.199Z,455.00
2022-10-03T04:36:40.297Z,451.00
2022-10-03T04:37:35.356Z,449.00
2022-10-03T04:38:30.425Z,455.00
2022-10-03T04:39:25.519Z,449.00
2022-10-03T04:40:20.540Z,447.00
2022-10-03T04:41:15.597Z,452.00
2022-10-03T04:42:10.554Z,449.00
2022-10-03T04:43:05.726Z,450.00
2022-10-03T04:44:00.937Z,452.00
2022-10-03T04:44:58.946Z,459.00
2022-10-03T04:45:54.036Z,462.00
2022-10-03T04:46:48.991Z,455.00
2022-10-03T04:47:44.074Z,458.00
2022-10-03T04:48:39.129Z,460.00
2022-10-03T04:49:34.180Z,462.00
2022-10-03T04:50:29.244Z,453.00
2022-10-03T04:51:24.293Z,458.00
2022-10-03T04:52:19.383Z,459.00
2022-10-03T04:53:14.415Z,456.00
2022-10-03T04:54:09.433Z,464.00
2022-10-03T04:55:04.502Z,457.00
2022-10-03T04:55:59.556Z,459.00
2022-10-03T04:56:54.619Z,463.00
2022-10-03T04:57:49.644Z,462.00
2022-10-03T04:58:44.729Z,465.00
2022-10-03T04:59:39.789Z,461.00
2022-10-03T05:00:34.895Z,466.00
2022-10-03T05:01:32.405Z,477.00
2022-10-03T05:02:27.579Z,471.00
2022-10-03T05:03:22.538Z,471.00
2022-10-03T05:04:17.467Z,486.00
2022-10-03T05:05:12.755Z,485.00
2022-10-03T05:06:07.714Z,477.00
2022-10-03T05:07:02.812Z,482.00
2022-10-03T05:07:57.911Z,472.00
2022-10-03T05:08:52.888Z,469.00
2022-10-03T05:09:48.035Z,471.00
2022-10-03T05:10:43.101Z,469.00
2022-10-03T05:11:38.413Z,471.00
2022-10-03T05:12:33.312Z,471.00
2022-10-03T05:13:28.400Z,471.00
2022-10-03T05:14:23.521Z,472.00
2022-10-03T05:15:19.700Z,474.00
2022-10-03T05:16:15.047Z,468.00
2022-10-03T05:17:10.219Z,471.00
2022-10-03T05:18:05.779Z,471.00
2022-10-03T05:19:00.936Z,469.00
2022-10-03T05:19:56.209Z,469.00
2022-10-03T05:20:51.509Z,463.00
2022-10-03T05:21:46.858Z,473.00
2022-10-03T05:22:42.211Z,470.00
2022-10-03T05:23:37.579Z,477.00
2022-10-03T05:24:32.921Z,471.00
2022-10-03T05:25:28.240Z,477.00
2022-10-03T05:26:44.047Z,467.00
2022-10-03T05:27:21.460Z,478.00
2022-10-03T05:28:16.002Z,472.00
2022-10-03T05:29:11.183Z,476.00
2022-10-03T05:30:06.514Z,471.00
2022-10-03T05:31:02.014Z,471.00
2022-10-03T05:31:57.399Z,469.00
2022-10-03T05:32:52.846Z,494.00
2022-10-03T05:33:48.063Z,475.00
2022-10-03T05:34:43.388Z,477.00
2022-10-03T05:35:38.859Z,475.00
2022-10-03T05:36:34.070Z,483.00
2022-10-03T05:37:29.499Z,478.00
2022-10-03T05:38:24.723Z,476.00
2022-10-03T05:39:20.024Z,477.00
2022-10-03T05:40:15.357Z,471.00
2022-10-03T05:41:10.686Z,472.00
2022-10-03T05:42:22.059Z,468.00
2022-10-03T05:43:03.521Z,470.00
2022-10-03T05:43:57.906Z,475.00
2022-10-03T05:44:53.228Z,476.00
2022-10-03T05:45:48.657Z,478.00
2022-10-03T05:46:43.956Z,479.00
2022-10-03T05:47:38.980Z,474.00
2022-10-03T05:48:33.936Z,480.00
2022-10-03T05:49:28.988Z,479.00
2022-10-03T05:50:23.956Z,478.00
2022-10-03T05:51:19.063Z,481.00
2022-10-03T05:52:14.194Z,487.00
2022-10-03T05:53:09.427Z,479.00
2022-10-03T05:54:04.607Z,482.00
2022-10-03T05:54:59.590Z,484.00
2022-10-03T05:55:54.599Z,479.00
2022-10-03T05:56:50.283Z,478.00
2022-10-03T05:57:45.410Z,485.00
2022-10-03T05:58:40.390Z,483.00
2022-10-03T05:59:35.441Z,481.00
2022-10-03T06:00:31.481Z,478.00
2022-10-03T06:01:27.016Z,481.00
2022-10-03T06:02:22.449Z,470.00
2022-10-03T06:03:17.792Z,467.00
2022-10-03T06:04:13.608Z,472.00
2022-10-03T06:05:08.995Z,467.00
2022-10-03T06:06:04.376Z,461.00
2022-10-03T06:06:59.785Z,455.00
2022-10-03T06:07:55.199Z,453.00
2022-10-03T06:08:50.630Z,472.00
2022-10-03T06:09:47.282Z,462.00
2022-10-03T06:10:42.724Z,455.00
2022-10-03T06:11:38.341Z,450.00
2022-10-03T06:12:33.525Z,472.00
2022-10-03T06:13:29.058Z,453.00
2022-10-03T06:14:24.505Z,454.00
2022-10-03T06:15:19.582Z,459.00
2022-10-03T06:16:14.698Z,446.00
2022-10-03T06:17:09.622Z,438.00
2022-10-03T06:18:04.686Z,450.00
2022-10-03T06:18:59.708Z,452.00
2022-10-03T06:19:54.771Z,447.00
2022-10-03T06:20:49.812Z,450.00
2022-10-03T06:21:44.830Z,444.00
2022-10-03T06:22:39.896Z,452.00
2022-10-03T06:23:34.943Z,451.00
2022-10-03T06:24:30.006Z,454.00
2022-10-03T06:25:25.032Z,445.00
2022-10-03T06:26:20.063Z,442.00
2022-10-03T06:27:15.250Z,447.00
2022-10-03T06:28:10.367Z,446.00
2022-10-03T06:29:05.421Z,442.00
2022-10-03T06:30:00.494Z,443.00
2022-10-03T06:30:55.552Z,444.00
2022-10-03T06:31:50.615Z,466.00
2022-10-03T06:32:49.840Z,465.00
2022-10-03T06:33:45.321Z,438.00
2022-10-03T06:34:40.781Z,458.00
2022-10-03T06:35:36.236Z,449.00
2022-10-03T06:36:31.682Z,442.00
2022-10-03T06:37:27.124Z,516.00
2022-10-03T06:38:22.736Z,455.00
2022-10-03T06:39:18.165Z,495.00
2022-10-03T06:40:13.641Z,472.00
2022-10-03T06:41:09.268Z,523.00
2022-10-03T06:42:04.722Z,505.00
2022-10-03T06:43:00.161Z,506.00
2022-10-03T06:43:55.918Z,452.00
2022-10-03T06:44:51.230Z,477.00
2022-10-03T06:45:46.747Z,478.00
2022-10-03T06:46:41.771Z,527.00
2022-10-03T06:47:36.833Z,508.00
2022-10-03T06:48:31.844Z,478.00
2022-10-03T06:49:27.035Z,504.00
2022-10-03T06:50:22.094Z,520.00
2022-10-03T06:51:17.191Z,502.00
2022-10-03T06:52:12.226Z,499.00
2022-10-03T06:53:07.281Z,476.00
2022-10-03T06:54:02.263Z,488.00
2022-10-03T06:54:57.334Z,482.00
2022-10-03T06:55:53.898Z,465.00
2022-10-03T06:56:50.045Z,468.00
2022-10-03T06:57:43.808Z,472.00
2022-10-03T06:58:38.859Z,466.00
2022-10-03T06:59:34.431Z,487.00
2022-10-03T07:00:29.924Z,479.00
2022-10-03T07:01:25.286Z,486.00
2022-10-03T07:02:20.784Z,475.00
2022-10-03T07:03:16.486Z,485.00
2022-10-03T07:04:11.954Z,494.00
2022-10-03T07:05:07.540Z,487.00
2022-10-03T07:06:02.996Z,490.00
2022-10-03T07:06:58.420Z,512.00
2022-10-03T07:07:53.856Z,490.00
2022-10-03T07:08:49.313Z,522.00
2022-10-03T07:09:44.741Z,490.00
2022-10-03T07:10:40.162Z,496.00
2022-10-03T07:11:35.704Z,497.00
2022-10-03T07:12:30.735Z,492.00
2022-10-03T07:13:25.780Z,498.00
2022-10-03T07:14:20.829Z,494.00
2022-10-03T07:15:15.975Z,485.00
2022-10-03T07:16:27.468Z,490.00
2022-10-03T07:17:07.237Z,483.00
2022-10-03T07:18:01.178Z,504.00
2022-10-03T07:18:58.291Z,528.00
2022-10-03T07:19:53.408Z,493.00
2022-10-03T07:20:48.382Z,497.00
2022-10-03T07:21:43.357Z,516.00
2022-10-03T07:22:38.469Z,495.00
2022-10-03T07:23:33.851Z,547.00
2022-10-03T07:24:29.698Z,568.00
2022-10-03T07:25:24.853Z,486.00
2022-10-03T07:26:20.266Z,514.00
2022-10-03T07:27:15.883Z,496.00
2022-10-03T07:28:11.426Z,484.00
2022-10-03T07:29:06.792Z,509.00
2022-10-03T07:30:02.245Z,544.00
2022-10-03T07:30:57.783Z,548.00
2022-10-03T07:31:54.307Z,534.00
2022-10-03T07:32:49.776Z,498.00
2022-10-03T07:33:45.344Z,508.00
2022-10-03T07:34:40.905Z,519.00
2022-10-03T07:35:36.246Z,500.00
2022-10-03T07:36:31.715Z,533.00
2022-10-03T07:37:27.164Z,543.00
2022-10-03T07:38:22.621Z,545.00
2022-10-03T07:39:18.072Z,540.00
2022-10-03T07:40:13.670Z,550.00
2022-10-03T07:41:09.140Z,539.00
2022-10-03T07:42:04.610Z,545.00
2022-10-03T07:43:00.007Z,541.00
2022-10-03T07:43:55.540Z,545.00
2022-10-03T07:44:50.613Z,507.00
2022-10-03T07:45:45.598Z,507.00
2022-10-03T07:46:40.884Z,507.00
2022-10-03T07:47:35.813Z,492.00
2022-10-03T07:48:30.937Z,518.00
2022-10-03T07:49:26.025Z,520.00
2022-10-03T07:50:21.127Z,503.00
2022-10-03T07:51:16.281Z,505.00
2022-10-03T07:52:11.254Z,512.00
2022-10-03T07:53:06.523Z,535.00
2022-10-03T07:54:01.464Z,528.00
2022-10-03T07:54:56.557Z,527.00
2022-10-03T07:55:51.569Z,530.00
2022-10-03T07:56:46.719Z,530.00
2022-10-03T07:57:43.985Z,542.00
2022-10-03T07:58:39.356Z,536.00
2022-10-03T07:59:34.949Z,551.00
2022-10-03T08:00:30.330Z,540.00
2022-10-03T08:01:25.808Z,542.00
2022-10-03T08:02:21.628Z,537.00
2022-10-03T08:03:16.901Z,532.00
2022-10-03T08:04:12.180Z,569.00
2022-10-03T08:05:07.609Z,527.00
2022-10-03T08:06:03.108Z,534.00
2022-10-03T08:06:58.583Z,536.00
2022-10-03T08:07:54.087Z,534.00
2022-10-03T08:08:49.582Z,542.00
2022-10-03T08:09:45.072Z,551.00
2022-10-03T08:10:40.922Z,520.00
2022-10-03T08:11:36.047Z,533.00
2022-10-03T08:12:31.507Z,558.00
2022-10-03T08:13:26.960Z,514.00
2022-10-03T08:14:22.486Z,519.00
2022-10-03T08:15:17.980Z,505.00
2022-10-03T08:16:13.561Z,549.00
2022-10-03T08:17:09.079Z,551.00
2022-10-03T08:18:04.660Z,554.00
2022-10-03T08:19:00.012Z,555.00
2022-10-03T08:19:55.944Z,540.00
2022-10-03T08:20:51.406Z,539.00
2022-10-03T08:21:46.901Z,577.00
2022-10-03T08:22:42.285Z,545.00
2022-10-03T08:23:37.808Z,536.00
2022-10-03T08:24:32.761Z,530.00
2022-10-03T08:25:27.850Z,584.00
2022-10-03T08:26:22.950Z,550.00
2022-10-03T08:27:18.166Z,534.00
2022-10-03T08:28:13.161Z,548.00
2022-10-03T08:29:08.166Z,526.00
2022-10-03T08:30:03.267Z,534.00
2022-10-03T08:30:58.400Z,535.00
2022-10-03T08:31:53.380Z,529.00
2022-10-03T08:32:48.930Z,524.00
2022-10-03T08:33:43.527Z,524.00
2022-10-03T08:34:38.690Z,535.00
2022-10-03T08:35:33.675Z,534.00
2022-10-03T08:36:28.727Z,536.00
2022-10-03T08:37:24.394Z,541.00
2022-10-03T08:38:19.812Z,543.00
2022-10-03T08:39:15.394Z,546.00
2022-10-03T08:40:10.823Z,537.00
2022-10-03T08:41:06.363Z,536.00
2022-10-03T08:42:01.824Z,539.00
2022-10-03T08:42:57.345Z,541.00
2022-10-03T08:43:52.991Z,528.00
2022-10-03T08:44:48.343Z,537.00
2022-10-03T08:45:43.762Z,534.00
2022-10-03T08:46:39.416Z,532.00
2022-10-03T08:47:34.812Z,530.00
2022-10-03T08:48:30.355Z,533.00
2022-10-03T08:49:25.943Z,530.00
2022-10-03T08:50:20.945Z,531.00
2022-10-03T08:51:15.962Z,535.00
2022-10-03T08:52:10.971Z,530.00
2022-10-03T08:53:06.035Z,533.00
2022-10-03T08:54:01.028Z,534.00
2022-10-03T08:54:56.041Z,538.00
2022-10-03T08:55:51.054Z,531.00
2022-10-03T08:56:48.765Z,529.00
2022-10-03T08:57:43.785Z,529.00
2022-10-03T08:58:38.821Z,534.00
2022-10-03T08:59:33.842Z,541.00
2022-10-03T09:00:28.967Z,537.00
2022-10-03T09:01:23.989Z,537.00
2022-10-03T09:02:19.223Z,537.00
2022-10-03T09:03:32.544Z,535.00
2022-10-03T09:04:10.258Z,540.00
2022-10-03T09:05:04.289Z,542.00
2022-10-03T09:05:59.313Z,537.00
2022-10-03T09:07:15.950Z,535.00
2022-10-03T09:07:50.314Z,538.00
2022-10-03T09:08:44.720Z,524.00
2022-10-03T09:09:40.162Z,531.00
2022-10-03T09:10:35.719Z,530.00
2022-10-03T09:11:31.159Z,530.00
2022-10-03T09:12:26.719Z,535.00
2022-10-03T09:13:22.227Z,544.00
2022-10-03T09:14:17.802Z,532.00
2022-10-03T09:15:13.799Z,533.00
2022-10-03T09:16:08.705Z,535.00
2022-10-03T09:17:04.197Z,531.00
2022-10-03T09:18:00.240Z,535.00
2022-10-03T09:18:55.530Z,539.00
2022-10-03T09:19:54.098Z,528.00
2022-10-03T09:20:49.755Z,532.00
2022-10-03T09:21:45.322Z,528.00
2022-10-03T09:22:41.052Z,531.00
2022-10-03T09:23:36.518Z,537.00
2022-10-03T09:24:32.053Z,527.00
2022-10-03T09:25:27.487Z,527.00
2022-10-03T09:26:23.026Z,519.00
2022-10-03T09:27:18.692Z,523.00
2022-10-03T09:28:14.160Z,522.00
2022-10-03T09:29:09.690Z,524.00
2022-10-03T09:30:04.782Z,528.00
2022-10-03T09:30:59.887Z,528.00
2022-10-03T09:31:55.049Z,538.00
2022-10-03T09:32:50.064Z,537.00
2022-10-03T09:33:45.098Z,530.00
2022-10-03T09:34:40.126Z,546.00
2022-10-03T09:35:35.111Z,551.00
2022-10-03T09:36:30.202Z,531.00
2022-10-03T09:37:25.335Z,543.00
2022-10-03T09:38:20.361Z,522.00
2022-10-03T09:39:15.784Z,535.00
2022-10-03T09:40:10.361Z,530.00
2022-10-03T09:41:05.389Z,534.00
2022-10-03T09:42:00.798Z,521.00
2022-10-03T09:42:56.494Z,523.00
2022-10-03T09:43:51.932Z,524.00
2022-10-03T09:44:47.339Z,506.00
2022-10-03T09:45:43.019Z,499.00
2022-10-03T09:46:40.866Z,504.00
2022-10-03T09:47:33.995Z,510.00
2022-10-03T09:48:29.280Z,504.00
2022-10-03T09:49:24.404Z,496.00
2022-10-03T09:50:19.441Z,505.00
2022-10-03T09:51:14.477Z,502.00
2022-10-03T09:52:09.463Z,506.00
2022-10-03T09:53:04.628Z,509.00
2022-10-03T09:53:59.784Z,500.00
2022-10-03T09:54:54.787Z,506.00
2022-10-03T09:55:49.842Z,507.00
2022-10-03T09:56:46.888Z,499.00
2022-10-03T09:57:41.894Z,501.00
2022-10-03T09:58:36.960Z,495.00
2022-10-03T09:59:31.959Z,502.00
2022-10-03T10:00:26.958Z,507.00
2022-10-03T10:01:22.036Z,511.00
2022-10-03T10:02:17.031Z,467.00
2022-10-03T10:03:12.078Z,470.00
2022-10-03T10:04:07.528Z,454.00
2022-10-03T10:05:02.983Z,456.00
2022-10-03T10:05:59.405Z,461.00
2022-10-03T10:06:54.940Z,458.00
2022-10-03T10:07:50.815Z,462.00
2022-10-03T10:08:46.251Z,465.00
2022-10-03T10:09:41.789Z,470.00
2022-10-03T10:10:37.451Z,472.00
2022-10-03T10:11:35.246Z,462.00
2022-10-03T10:12:28.831Z,469.00
2022-10-03T10:13:24.458Z,497.00
2022-10-03T10:14:19.690Z,495.00
2022-10-03T10:15:15.566Z,485.00
2022-10-03T10:16:10.863Z,488.00
2022-10-03T10:17:06.372Z,489.00
2022-10-03T10:18:02.599Z,483.00
2022-10-03T10:18:58.183Z,483.00
2022-10-03T10:19:54.032Z,469.00
2022-10-03T10:20:49.644Z,474.00
2022-10-03T10:21:45.143Z,475.00
2022-10-03T10:22:40.961Z,477.00
2022-10-03T10:23:36.507Z,484.00
2022-10-03T10:24:32.372Z,481.00
2022-10-03T10:25:27.782Z,486.00
2022-10-03T10:26:26.315Z,485.00
2022-10-03T10:27:19.969Z,518.00
2022-10-03T10:28:14.339Z,516.00
2022-10-03T10:29:09.663Z,520.00
2022-10-03T10:30:06.311Z,519.00
2022-10-03T10:31:01.989Z,517.00
2022-10-03T10:31:57.673Z,513.00
2022-10-03T10:32:53.250Z,517.00
2022-10-03T10:33:48.791Z,520.00
2022-10-03T10:34:44.495Z,513.00
2022-10-03T10:35:40.046Z,521.00
2022-10-03T10:36:35.811Z,521.00
2022-10-03T10:37:31.202Z,525.00
2022-10-03T10:38:26.694Z,523.00
2022-10-03T10:39:22.627Z,519.00
2022-10-03T10:40:17.997Z,522.00
2022-10-03T10:41:13.485Z,523.00
2022-10-03T10:42:09.813Z,524.00
2022-10-03T10:43:05.305Z,528.00
2022-10-03T10:44:01.238Z,527.00
2022-10-03T10:44:56.816Z,527.00
2022-10-03T10:45:52.362Z,512.00
2022-10-03T10:46:48.010Z,515.00
2022-10-03T10:47:43.406Z,516.00
2022-10-03T10:48:40.558Z,519.00
2022-10-03T10:49:34.526Z,530.00
2022-10-03T10:50:30.004Z,545.00
2022-10-03T10:51:25.078Z,519.00
2022-10-03T10:52:20.156Z,505.00
2022-10-03T10:53:15.302Z,509.00
2022-10-03T10:54:14.863Z,509.00
2022-10-03T10:55:10.238Z,505.00
2022-10-03T10:56:05.741Z,501.00
2022-10-03T10:57:01.688Z,463.00
2022-10-03T10:57:57.064Z,457.00
2022-10-03T10:58:52.600Z,457.00
2022-10-03T10:59:48.933Z,462.00
2022-10-03T11:00:44.466Z,459.00
2022-10-03T11:01:45.160Z,453.00
2022-10-03T11:02:36.792Z,455.00
2022-10-03T11:03:31.432Z,460.00
2022-10-03T11:04:27.936Z,458.00
2022-10-03T11:05:23.401Z,458.00
2022-10-03T11:06:19.324Z,465.00
2022-10-03T11:07:14.745Z,473.00
2022-10-03T11:08:10.233Z,474.00
2022-10-03T11:09:05.845Z,471.00
2022-10-03T11:10:01.242Z,468.00
2022-10-03T11:10:58.172Z,478.00
2022-10-03T11:11:53.234Z,473.00
2022-10-03T11:12:48.755Z,488.00
2022-10-03T11:13:44.573Z,464.00
2022-10-03T11:14:39.995Z,461.00
2022-10-03T11:15:35.690Z,470.00
2022-10-03T11:16:31.095Z,476.00
2022-10-03T11:17:26.052Z,470.00
2022-10-03T11:18:21.131Z,471.00
2022-10-03T11:19:16.246Z,480.00
2022-10-03T11:20:11.453Z,476.00
2022-10-03T11:21:06.433Z,471.00
2022-10-03T11:22:01.384Z,474.00
2022-10-03T11:22:58.924Z,469.00
2022-10-03T11:23:51.532Z,464.00
2022-10-03T11:24:46.749Z,456.00
2022-10-03T11:25:43.735Z,463.00
2022-10-03T11:26:38.957Z,465.00
2022-10-03T11:27:33.802Z,453.00
2022-10-03T11:28:28.900Z,456.00
2022-10-03T11:29:24.012Z,465.00
2022-10-03T11:30:18.999Z,464.00